Ocoee, Florida
Current Conditions -  °F | °C
As of 10:53 AM on Monday 26 Jan 2015 (Local Time) from KORL Reporting Station
Clear Clear  
Wind Chill: 62°   Ceiling: Unl
Heat Index: 62°   Visibility: 10mi
Dew Point: 45°   Wind: 20mph
Humidity: 53%   Direction: 300°WNW
Pressure: 29.9"   Gusts: 32mph
Location:  28.57°N, 81.54°W
Report Text: KORL 261553Z 30017G28KT 10SM CLR 17/07 A2990 RMK AO2 PK WND 29028/1547 SLP129 T01670072
Loading
Personal Weather Stations






























Interactive Weather Map New forecast layout! Learn more

10-Day Weather Forecast

Advertisements
Track Severe Weather on mobile